createdAt,value
2023-06-15T04:01:14.067Z,4.18
2023-06-15T04:05:25.988Z,3.67
2023-06-15T04:09:38.121Z,3.42
2023-06-15T04:13:49.834Z,3.78
2023-06-15T04:18:01.673Z,3.65
2023-06-15T04:22:14.325Z,3.30
2023-06-15T04:26:27.386Z,3.92
2023-06-15T04:30:46.725Z,3.72
2023-06-15T04:35:02.444Z,3.85
2023-06-15T04:39:14.298Z,3.88
2023-06-15T04:43:26.311Z,3.78
2023-06-15T04:47:38.539Z,4.13
2023-06-15T04:51:52.017Z,4.00
2023-06-15T04:56:04.397Z,3.83
2023-06-15T05:00:16.382Z,3.95
2023-06-15T05:04:34.313Z,3.83
2023-06-15T05:08:46.136Z,4.10
2023-06-15T05:13:11.068Z,4.13
2023-06-15T05:17:29.049Z,3.97
2023-06-15T05:21:52.868Z,3.78
2023-06-15T05:26:09.403Z,3.78
2023-06-15T05:30:34.692Z,3.30
2023-06-15T05:34:47.182Z,3.53
2023-06-15T05:38:59.117Z,3.55
2023-06-15T05:43:11.091Z,3.42
2023-06-15T05:47:23.241Z,3.40
2023-06-15T05:51:35.118Z,3.33
2023-06-15T05:55:47.249Z,3.83
2023-06-15T06:00:00.434Z,3.33
2023-06-15T06:04:12.069Z,3.70
2023-06-15T06:08:24.689Z,3.65
2023-06-15T06:12:36.864Z,3.60
2023-06-15T06:16:48.435Z,3.88
2023-06-15T06:21:01.204Z,3.67
2023-06-15T06:25:13.216Z,3.72
2023-06-15T06:29:24.884Z,3.42
2023-06-15T06:33:38.329Z,3.80
2023-06-15T06:37:50.324Z,4.05
2023-06-15T06:42:02.104Z,3.80
2023-06-15T06:46:23.426Z,3.65
2023-06-15T06:50:35.194Z,4.10
2023-06-15T06:54:46.740Z,3.72
2023-06-15T06:58:58.265Z,4.25
2023-06-15T07:03:10.075Z,3.70
2023-06-15T07:07:21.741Z,4.18
2023-06-15T07:11:33.333Z,3.97
2023-06-15T07:15:44.893Z,4.05
2023-06-15T07:19:56.435Z,4.10
2023-06-15T07:24:08.055Z,4.07
2023-06-15T07:28:20.553Z,4.20
2023-06-15T07:32:32.181Z,3.95
2023-06-15T07:36:43.816Z,4.13
2023-06-15T07:40:55.526Z,4.07
2023-06-15T07:45:07.740Z,4.43
2023-06-15T07:49:26.726Z,4.32
2023-06-15T07:53:44.538Z,4.32
2023-06-15T07:57:56.106Z,4.25
2023-06-15T08:02:07.779Z,4.75
2023-06-15T08:06:19.349Z,4.60
2023-06-15T08:10:30.925Z,4.28
2023-06-15T08:14:42.496Z,4.40
2023-06-15T08:18:54.045Z,4.35
2023-06-15T08:23:06.110Z,4.00
2023-06-15T08:27:17.658Z,4.30
2023-06-15T08:31:31.130Z,4.30
2023-06-15T08:35:42.680Z,4.55
2023-06-15T08:39:54.321Z,4.60
2023-06-15T08:44:09.240Z,4.63
2023-06-15T08:48:22.988Z,4.28
2023-06-15T08:52:35.947Z,4.30
2023-06-15T08:56:47.610Z,3.97
2023-06-15T09:01:01.434Z,4.30
2023-06-15T09:05:13.531Z,4.13
2023-06-15T09:09:25.199Z,4.10
2023-06-15T09:13:36.998Z,4.40
2023-06-15T09:17:52.634Z,4.40
2023-06-15T09:22:08.613Z,4.22
2023-06-15T09:26:27.047Z,4.05
2023-06-15T09:30:42.006Z,4.30
2023-06-15T09:35:00.793Z,4.18
2023-06-15T09:39:14.742Z,4.13
2023-06-15T09:43:34.893Z,4.20
2023-06-15T09:47:46.562Z,4.32
2023-06-15T09:51:58.615Z,4.13
2023-06-15T09:56:25.137Z,4.13
2023-06-15T10:00:42.615Z,4.22
2023-06-15T10:04:54.905Z,3.90
2023-06-15T10:09:09.657Z,4.20
2023-06-15T10:13:30.394Z,3.78
2023-06-15T10:17:47.319Z,4.43
2023-06-15T10:21:59.206Z,3.83
2023-06-15T10:26:10.961Z,4.32
2023-06-15T10:30:29.666Z,3.83
2023-06-15T10:34:57.499Z,4.13
2023-06-15T10:39:09.793Z,4.20
2023-06-15T10:43:23.001Z,4.05
2023-06-15T10:47:34.574Z,4.07
2023-06-15T10:51:52.602Z,3.80
2023-06-15T10:56:12.925Z,4.25
2023-06-15T11:00:26.141Z,4.05
2023-06-15T11:04:37.858Z,4.30
2023-06-15T11:09:06.094Z,4.38
2023-06-15T11:13:25.534Z,4.05
2023-06-15T11:18:04.192Z,3.95
2023-06-15T11:22:27.111Z,4.05
2023-06-15T11:26:44.610Z,3.95
2023-06-15T11:30:56.463Z,4.20
2023-06-15T11:35:11.503Z,4.10
2023-06-15T11:39:24.026Z,3.90
2023-06-15T11:43:38.879Z,3.83
2023-06-15T11:47:50.570Z,4.00
2023-06-15T11:52:03.314Z,3.67
2023-06-15T11:56:16.829Z,3.83
2023-06-15T12:00:28.892Z,3.80
2023-06-15T12:04:40.726Z,3.70
2023-06-15T12:08:55.627Z,3.53
2023-06-15T12:13:13.897Z,3.80
2023-06-15T12:17:32.356Z,3.85
2023-06-15T12:21:44.826Z,3.83
2023-06-15T12:25:57.863Z,3.55
2023-06-15T12:30:14.913Z,3.42
2023-06-15T12:34:27.226Z,3.20
2023-06-15T12:38:39.821Z,3.15
2023-06-15T12:43:02.690Z,4.57
2023-06-15T12:47:14.225Z,3.30
2023-06-15T12:51:25.965Z,3.35
2023-06-15T12:55:37.649Z,3.28
2023-06-15T12:59:49.275Z,3.15
2023-06-15T13:04:01.405Z,3.55
2023-06-15T13:08:15.507Z,3.33
2023-06-15T13:12:27.051Z,3.20
2023-06-15T13:16:38.705Z,3.65
2023-06-15T13:20:50.325Z,3.47
2023-06-15T13:25:07.630Z,3.03
2023-06-15T13:29:19.171Z,3.00
2023-06-15T13:33:30.696Z,3.10
2023-06-15T13:37:43.187Z,3.30
2023-06-15T13:41:55.418Z,2.90
2023-06-15T13:46:06.966Z,2.97
2023-06-15T13:50:20.160Z,2.97
2023-06-15T13:54:32.308Z,2.95
2023-06-15T13:58:43.831Z,3.40
2023-06-15T14:02:55.494Z,3.30
2023-06-15T14:07:07.280Z,3.22
2023-06-15T14:11:18.896Z,3.50
2023-06-15T14:15:30.493Z,3.45
2023-06-15T14:19:42.052Z,3.28
2023-06-15T14:23:53.690Z,3.15
2023-06-15T14:28:05.606Z,3.30
2023-06-15T14:32:17.354Z,3.25
2023-06-15T14:36:29.002Z,2.70
2023-06-15T14:40:40.630Z,3.00
2023-06-15T14:44:52.451Z,3.10
2023-06-15T14:49:04.871Z,3.28
2023-06-15T14:53:16.710Z,3.00
2023-06-15T14:57:28.621Z,2.97
2023-06-15T15:01:40.216Z,2.80
2023-06-15T15:05:51.781Z,2.80
2023-06-15T15:10:03.785Z,2.80
2023-06-15T15:14:15.412Z,3.13
2023-06-15T15:18:28.116Z,3.10
2023-06-15T15:22:40.608Z,3.17
2023-06-15T15:26:52.186Z,2.50
2023-06-15T15:31:03.735Z,2.90
2023-06-15T15:35:15.293Z,2.67
2023-06-15T15:39:28.327Z,2.65
2023-06-15T15:43:40.032Z,2.50
2023-06-15T15:47:51.882Z,2.53
2023-06-15T15:52:03.581Z,2.72
2023-06-15T15:56:15.114Z,2.80
2023-06-15T16:00:27.128Z,2.75
2023-06-15T16:04:38.821Z,2.60
2023-06-15T16:08:50.475Z,2.70
2023-06-15T16:13:02.129Z,2.70
2023-06-15T16:17:14.356Z,2.58
2023-06-15T16:21:26.464Z,2.80
2023-06-15T16:25:38.058Z,2.40
2023-06-15T16:29:49.591Z,2.65
2023-06-15T16:34:01.252Z,2.65
2023-06-15T16:38:12.828Z,2.75
2023-06-15T16:42:28.145Z,2.80
2023-06-15T16:46:39.681Z,2.90
2023-06-15T16:50:51.420Z,2.55
2023-06-15T16:55:03.570Z,2.92
2023-06-15T16:59:15.095Z,2.70
2023-06-15T17:03:26.832Z,2.58
2023-06-15T17:07:38.574Z,2.47
2023-06-15T17:11:51.033Z,2.95
2023-06-15T17:16:03.328Z,2.78
2023-06-15T17:20:14.976Z,2.58
2023-06-15T17:24:27.818Z,2.53
2023-06-15T17:28:39.620Z,2.83
2023-06-15T17:32:51.156Z,2.70
2023-06-15T17:37:03.550Z,3.30
2023-06-15T17:41:16.093Z,3.10
2023-06-15T17:45:28.012Z,3.03
2023-06-15T17:49:39.559Z,3.50
2023-06-15T17:53:51.113Z,3.83
2023-06-15T17:58:02.668Z,3.65
2023-06-15T18:02:14.233Z,4.10
2023-06-15T18:06:25.821Z,3.60
2023-06-15T18:10:37.355Z,3.40
2023-06-15T18:14:48.903Z,3.45
2023-06-15T18:19:00.567Z,3.80
2023-06-15T18:23:12.427Z,3.40
2023-06-15T18:27:23.981Z,3.90
2023-06-15T18:36:16.190Z,3.83
2023-06-15T18:40:27.824Z,3.50
2023-06-15T18:44:39.407Z,3.80
2023-06-15T18:48:51.479Z,3.47
2023-06-15T18:53:03.767Z,3.80
2023-06-15T18:57:18.035Z,4.40
2023-06-15T19:01:29.644Z,4.40
2023-06-15T19:05:41.254Z,4.60
2023-06-15T19:09:52.957Z,4.18
2023-06-15T19:14:04.995Z,3.90
2023-06-15T19:18:16.886Z,4.05
2023-06-15T19:22:28.534Z,3.90
2023-06-15T19:26:40.608Z,3.63
2023-06-15T19:30:52.194Z,3.83
2023-06-15T19:35:04.067Z,3.67
2023-06-15T19:39:17.708Z,4.18
2023-06-15T19:43:29.371Z,3.92
2023-06-15T19:47:41.502Z,4.10
2023-06-15T19:51:53.189Z,4.00
2023-06-15T19:56:06.926Z,4.05
2023-06-15T20:00:19.000Z,4.03
2023-06-15T20:04:30.960Z,4.45
2023-06-15T20:08:43.789Z,4.30
2023-06-15T20:12:55.481Z,4.30
2023-06-15T20:17:07.145Z,4.72
2023-06-15T20:21:19.560Z,4.85
2023-06-15T20:25:31.156Z,4.28
2023-06-15T20:29:42.738Z,4.35
2023-06-15T20:33:55.346Z,4.50
2023-06-15T20:38:07.336Z,4.20
2023-06-15T20:42:19.033Z,4.30
2023-06-15T20:46:31.664Z,4.85
2023-06-15T20:50:43.374Z,4.15
2023-06-15T20:54:54.942Z,4.32
2023-06-15T20:59:06.511Z,4.35
2023-06-15T21:03:18.449Z,4.35
2023-06-15T21:07:30.101Z,4.78
2023-06-15T21:11:41.642Z,4.20
2023-06-15T21:15:54.190Z,5.10
2023-06-15T21:20:07.061Z,4.75
2023-06-15T21:24:18.685Z,4.75
2023-06-15T21:28:30.260Z,4.38
